createdAt,value
2023-04-22T00:01:20.131Z,96473.16
2023-04-22T00:03:46.885Z,96482.25
2023-04-22T00:06:13.520Z,96484.94
2023-04-22T00:08:39.911Z,96470.22
2023-04-22T00:11:08.330Z,96482.00
2023-04-22T00:13:34.805Z,96473.69
2023-04-22T00:16:01.263Z,96473.72
2023-04-22T00:18:27.681Z,96467.34
2023-04-22T00:20:54.077Z,96491.34
2023-04-22T00:23:20.484Z,96464.88
2023-04-22T00:25:46.864Z,96448.06
2023-04-22T00:28:13.281Z,96483.81
2023-04-22T00:30:39.664Z,96486.72
2023-04-22T00:33:06.059Z,96481.88
2023-04-22T00:35:32.524Z,96478.72
2023-04-22T00:37:58.908Z,96492.38
2023-04-22T00:40:25.342Z,96506.25
2023-04-22T00:42:51.738Z,96492.69
2023-04-22T00:45:18.878Z,96488.13
2023-04-22T00:47:45.652Z,96492.69
2023-04-22T00:50:12.136Z,96496.16
2023-04-22T00:52:38.753Z,96500.44
2023-04-22T00:55:05.359Z,96498.28
2023-04-22T00:57:31.790Z,96483.63
2023-04-22T00:59:58.208Z,96492.44
2023-04-22T01:02:24.903Z,96499.91
2023-04-22T01:04:51.668Z,96506.31
2023-04-22T01:07:18.065Z,96470.53
2023-04-22T01:09:44.525Z,96500.69
2023-04-22T01:12:10.929Z,96495.63
2023-04-22T01:14:37.356Z,96469.72
2023-04-22T01:17:03.975Z,96497.25
2023-04-22T01:19:30.612Z,96495.66
2023-04-22T01:21:57.129Z,96493.25
2023-04-22T01:24:23.520Z,96499.13
2023-04-22T01:26:49.891Z,96491.38
2023-04-22T01:29:16.302Z,96495.38
2023-04-22T01:31:42.726Z,96501.25
2023-04-22T01:34:09.334Z,96503.94
2023-04-22T01:36:35.729Z,96489.22
2023-04-22T01:39:02.162Z,96499.66
2023-04-22T01:41:28.580Z,96492.19
2023-04-22T01:43:54.964Z,96476.44
2023-04-22T01:46:21.455Z,96500.19
2023-04-22T01:48:47.866Z,96493.50
2023-04-22T01:51:14.262Z,96477.50
2023-04-22T01:53:40.909Z,96492.19
2023-04-22T01:56:07.439Z,96500.19
2023-04-22T01:58:33.823Z,96501.53
2023-04-22T02:01:00.298Z,96491.38
2023-04-22T02:03:26.807Z,96512.47
2023-04-22T02:05:53.307Z,96479.91
2023-04-22T02:08:19.790Z,96503.13
2023-04-22T02:10:46.181Z,96489.50
2023-04-22T02:13:12.578Z,96491.13
2023-04-22T02:15:39.061Z,96500.72
2023-04-22T02:18:05.545Z,96498.59
2023-04-22T02:20:31.950Z,96490.31
2023-04-22T02:22:58.380Z,96499.66
2023-04-22T02:25:24.754Z,96482.81
2023-04-22T02:27:51.215Z,96508.72
2023-04-22T02:30:17.658Z,96454.25
2023-04-22T02:32:44.101Z,96501.81
2023-04-22T02:35:10.719Z,96513.81
2023-04-22T02:37:37.351Z,96494.81
2023-04-22T02:40:04.065Z,96485.75
2023-04-22T02:42:30.781Z,96469.16
2023-04-22T02:44:57.266Z,96511.63
2023-04-22T02:47:23.753Z,96507.63
2023-04-22T02:49:50.172Z,96491.34
2023-04-22T02:52:16.546Z,96472.41
2023-04-22T02:54:42.913Z,96506.00
2023-04-22T02:57:09.286Z,96500.13
2023-04-22T02:59:35.650Z,96506.25
2023-04-22T03:02:03.224Z,96517.19
2023-04-22T03:04:31.604Z,96503.06
2023-04-22T03:06:58.817Z,96508.88
2023-04-22T03:09:25.331Z,96494.47
2023-04-22T03:11:51.738Z,96505.16
2023-04-22T03:14:18.209Z,96501.13
2023-04-22T03:16:44.651Z,96503.00
2023-04-22T03:19:11.169Z,96488.88
2023-04-22T03:21:37.554Z,96485.63
2023-04-22T03:24:03.872Z,96487.75
2023-04-22T03:26:30.302Z,96496.53
2023-04-22T03:28:56.741Z,96498.66
2023-04-22T03:31:23.144Z,96502.69
2023-04-22T03:33:49.582Z,96518.41
2023-04-22T03:36:15.988Z,96488.00
2023-04-22T03:38:42.403Z,96503.75
2023-04-22T03:41:08.828Z,96497.66
2023-04-22T03:43:35.314Z,96505.16
2023-04-22T03:46:01.708Z,96500.75
2023-04-22T03:48:28.185Z,96495.97
2023-04-22T03:50:54.583Z,96504.75
2023-04-22T03:53:20.939Z,96467.97
2023-04-22T03:55:47.328Z,96485.88
2023-04-22T03:58:13.859Z,96499.50
2023-04-22T04:00:40.218Z,96480.00
2023-04-22T04:03:06.824Z,96492.84
2023-04-22T04:05:33.812Z,96490.69
2023-04-22T04:08:00.308Z,96501.59
2023-04-22T04:10:26.720Z,96491.69
2023-04-22T04:12:53.044Z,96490.03
2023-04-22T04:15:19.446Z,96518.00
2023-04-22T04:17:45.894Z,96504.38
2023-04-22T04:20:12.502Z,96526.22
2023-04-22T04:22:38.965Z,96526.16
2023-04-22T04:25:05.598Z,96513.69
2023-04-22T04:27:31.977Z,96512.09
2023-04-22T04:29:58.472Z,96517.44
2023-04-22T04:32:24.903Z,96516.28
2023-04-22T04:34:51.276Z,96515.78
2023-04-22T04:37:17.763Z,96519.97
2023-04-22T04:39:44.183Z,96521.06
2023-04-22T04:42:10.635Z,96510.97
2023-04-22T04:44:37.513Z,96536.59
2023-04-22T04:47:03.993Z,96524.06
2023-04-22T04:49:30.470Z,96522.25
2023-04-22T04:51:57.535Z,96521.97
2023-04-22T04:54:23.889Z,96523.97
2023-04-22T04:56:50.265Z,96526.91
2023-04-22T04:59:16.703Z,96527.22
2023-04-22T05:01:43.166Z,96538.16
2023-04-22T05:04:09.832Z,96534.44
2023-04-22T05:06:36.360Z,96528.03
2023-04-22T05:09:02.768Z,96487.81
2023-04-22T05:11:29.167Z,96519.16
2023-04-22T05:13:55.945Z,96515.50
2023-04-22T05:16:22.456Z,96535.00
2023-04-22T05:18:48.894Z,96535.50
2023-04-22T05:21:15.338Z,96523.81
2023-04-22T05:23:41.693Z,96527.34
2023-04-22T05:26:08.140Z,96510.84
2023-04-22T05:28:34.474Z,96506.59
2023-04-22T05:33:28.886Z,96546.88
2023-04-22T05:35:55.410Z,96529.38
2023-04-22T05:38:21.850Z,96516.63
2023-04-22T05:40:48.246Z,96524.13
2023-04-22T05:43:14.832Z,96511.91
2023-04-22T05:45:41.239Z,96526.06
2023-04-22T05:48:07.771Z,96531.69
2023-04-22T05:50:34.302Z,96522.63
2023-04-22T05:53:00.729Z,96529.56
2023-04-22T05:55:27.204Z,96527.44
2023-04-22T05:57:53.709Z,96537.31
2023-04-22T06:00:20.101Z,96530.09
2023-04-22T06:02:46.744Z,96514.03
2023-04-22T06:05:13.452Z,96539.94
2023-04-22T06:07:40.069Z,96544.47
2023-04-22T06:10:06.976Z,96508.81
2023-04-22T06:12:33.631Z,96518.63
2023-04-22T06:15:00.013Z,96515.28
2023-04-22T06:17:26.568Z,96528.34
2023-04-22T06:19:53.126Z,96527.88
2023-04-22T06:22:21.313Z,96557.53
2023-04-22T06:24:48.240Z,96553.16
2023-04-22T06:27:14.755Z,96559.50
2023-04-22T06:29:41.295Z,96541.38
2023-04-22T06:32:07.833Z,96540.75
2023-04-22T06:34:34.515Z,96534.22
2023-04-22T06:37:00.893Z,96570.00
2023-04-22T06:39:27.627Z,96551.91
2023-04-22T06:41:54.030Z,96540.53
2023-04-22T06:44:20.478Z,96541.34
2023-04-22T06:46:47.012Z,96542.38
2023-04-22T06:49:13.420Z,96562.16
2023-04-22T06:51:40.097Z,96540.81
2023-04-22T06:54:06.500Z,96542.47
2023-04-22T06:56:32.936Z,96549.47
2023-04-22T06:58:59.404Z,96581.13
2023-04-22T07:01:25.844Z,96552.59
2023-04-22T07:03:52.372Z,96551.06
2023-04-22T07:06:18.939Z,96589.25
2023-04-22T07:08:45.404Z,96549.53
2023-04-22T07:11:13.972Z,96562.03
2023-04-22T07:13:40.876Z,96566.97
2023-04-22T07:16:07.346Z,96573.97
2023-04-22T07:18:33.815Z,96551.69
2023-04-22T07:21:00.257Z,96568.69
2023-04-22T07:23:26.612Z,96574.53
2023-04-22T07:25:52.965Z,96571.38
2023-04-22T07:28:19.376Z,96542.59
2023-04-22T07:30:46.866Z,96544.09
2023-04-22T07:33:13.346Z,96545.31
2023-04-22T07:35:39.765Z,96538.78
2023-04-22T07:38:07.294Z,96562.28
2023-04-22T07:40:34.659Z,96536.34
2023-04-22T07:43:01.185Z,96549.53
2023-04-22T07:45:27.679Z,96535.00
2023-04-22T07:47:54.261Z,96545.81
2023-04-22T07:50:21.367Z,96542.84
2023-04-22T07:52:48.064Z,96560.88
2023-04-22T07:55:14.531Z,96531.06
2023-04-22T07:57:41.102Z,96548.69
2023-04-22T08:00:09.099Z,96565.31
2023-04-22T08:02:35.677Z,96556.94
2023-04-22T08:05:02.338Z,96549.59
2023-04-22T08:07:33.015Z,96525.16
2023-04-22T08:10:00.075Z,96520.50
2023-04-22T08:12:26.876Z,96537.19
2023-04-22T08:14:53.327Z,96497.56
2023-04-22T08:17:19.802Z,96519.28
2023-04-22T08:19:47.372Z,96543.56
2023-04-22T08:22:13.681Z,96519.41
2023-04-22T08:24:40.173Z,96516.88
2023-04-22T08:27:07.323Z,96507.53
2023-04-22T08:29:33.854Z,96564.19
2023-04-22T08:32:00.261Z,96516.22
2023-04-22T08:34:26.635Z,96527.28
2023-04-22T08:36:53.048Z,96528.94
2023-04-22T08:39:19.456Z,96528.31
2023-04-22T08:41:45.892Z,96544.03
2023-04-22T08:44:12.409Z,96535.50
2023-04-22T08:46:39.157Z,96529.38
2023-04-22T08:49:05.698Z,96569.22
2023-04-22T08:51:32.210Z,96545.59
2023-04-22T08:53:58.657Z,96546.69
2023-04-22T08:56:25.200Z,96528.53
2023-04-22T08:58:51.614Z,96546.72
2023-04-22T09:01:18.238Z,96538.47
2023-04-22T09:03:44.794Z,96515.38
2023-04-22T09:06:11.219Z,96521.88
2023-04-22T09:08:38.223Z,96529.69
2023-04-22T09:11:04.686Z,96498.94
2023-04-22T09:13:32.393Z,96528.41
2023-04-22T09:16:00.020Z,96534.13
2023-04-22T09:18:27.194Z,96526.66
2023-04-22T09:20:54.589Z,96507.59
2023-04-22T09:23:21.018Z,96508.50
2023-04-22T09:25:47.787Z,96504.50
2023-04-22T09:28:17.693Z,96533.13
2023-04-22T09:30:44.684Z,96513.66
2023-04-22T09:33:11.134Z,96504.66
2023-04-22T09:35:37.901Z,96500.72
2023-04-22T09:38:04.787Z,96504.53
2023-04-22T09:40:31.920Z,96536.25
2023-04-22T09:42:59.435Z,96512.63
2023-04-22T09:45:32.216Z,96524.75
2023-04-22T09:48:10.867Z,96508.00
2023-04-22T09:50:37.593Z,96523.31
2023-04-22T09:53:04.933Z,96502.56
2023-04-22T09:55:32.300Z,96503.72
2023-04-22T10:01:35.134Z,96506.75
2023-04-22T10:04:01.693Z,96484.19
2023-04-22T10:06:28.218Z,96485.00
2023-04-22T10:08:54.622Z,96494.53
2023-04-22T10:11:21.054Z,96493.19
2023-04-22T10:13:47.771Z,96489.16
2023-04-22T10:16:14.485Z,96496.34
2023-04-22T10:18:42.299Z,96485.28
2023-04-22T10:21:08.824Z,96494.78
2023-04-22T10:23:35.324Z,96484.88
2023-04-22T10:26:01.825Z,96472.38
2023-04-22T10:28:28.570Z,96477.41
2023-04-22T10:30:55.056Z,96475.91
2023-04-22T10:33:21.554Z,96458.47
2023-04-22T10:36:06.668Z,96484.19
2023-04-22T10:38:36.426Z,96467.63
2023-04-22T10:41:02.933Z,96479.03
2023-04-22T10:43:45.495Z,96449.09
2023-04-22T10:46:45.019Z,96458.03
2023-04-22T10:49:12.416Z,96462.44
2023-04-22T10:51:39.420Z,96458.88
2023-04-22T10:54:06.261Z,96453.50
2023-04-22T10:56:32.873Z,96443.28
2023-04-22T10:58:59.392Z,96442.84
2023-04-22T11:01:28.887Z,96454.97
2023-04-22T11:03:55.596Z,96450.75
2023-04-22T11:06:22.229Z,96440.81
2023-04-22T11:08:49.318Z,96436.19
2023-04-22T11:11:18.756Z,96433.78
2023-04-22T11:13:45.309Z,96432.25
2023-04-22T11:16:11.868Z,96448.53
2023-04-22T11:18:38.664Z,96421.81
2023-04-22T11:21:05.565Z,96435.59
2023-04-22T11:23:31.970Z,96446.88
2023-04-22T11:26:02.137Z,96429.03
2023-04-22T11:28:28.823Z,96445.75
2023-04-22T11:31:08.220Z,96459.47
2023-04-22T11:33:34.989Z,96463.03
2023-04-22T11:36:01.538Z,96443.22
2023-04-22T11:38:28.153Z,96444.72
2023-04-22T11:40:54.889Z,96434.63
2023-04-22T11:43:21.265Z,96430.91
2023-04-22T11:45:47.789Z,96435.22
2023-04-22T11:48:14.595Z,96413.91
2023-04-22T11:50:50.538Z,96409.63
2023-04-22T11:54:06.162Z,96418.44
2023-04-22T11:56:37.270Z,96440.38
2023-04-22T11:59:08.058Z,96416.09
2023-04-22T12:01:34.592Z,96413.94
2023-04-22T12:04:01.215Z,96431.09
2023-04-22T12:06:30.133Z,96390.34
2023-04-22T12:08:56.561Z,96423.22
2023-04-22T12:11:22.975Z,96402.16
2023-04-22T12:13:49.507Z,96410.22
2023-04-22T12:16:19.403Z,96411.41
2023-04-22T12:18:49.257Z,96390.13
2023-04-22T12:21:17.571Z,96416.84
2023-04-22T12:23:47.780Z,96423.19
2023-04-22T12:26:14.626Z,96410.44
2023-04-22T12:28:41.598Z,96417.75
2023-04-22T12:31:08.137Z,96430.03
2023-04-22T12:33:35.224Z,96411.63
2023-04-22T12:36:01.729Z,96419.78
2023-04-22T12:38:28.146Z,96415.88
2023-04-22T12:40:54.700Z,96398.59
2023-04-22T12:43:21.134Z,96419.88
2023-04-22T12:45:47.660Z,96372.31
2023-04-22T12:48:14.144Z,96406.59
2023-04-22T12:50:40.582Z,96401.03
2023-04-22T12:53:07.083Z,96383.22
2023-04-22T12:55:33.686Z,96407.97
2023-04-22T12:58:00.153Z,96366.09
2023-04-22T13:00:26.631Z,96380.69
2023-04-22T13:02:53.441Z,96379.09
2023-04-22T13:05:20.000Z,96376.88
2023-04-22T13:07:50.745Z,96373.53
2023-04-22T13:10:26.450Z,96381.69
2023-04-22T13:12:53.188Z,96373.72
2023-04-22T13:15:19.907Z,96382.09
2023-04-22T13:17:48.059Z,96359.47
2023-04-22T13:20:15.647Z,96363.09
2023-04-22T13:22:42.407Z,96366.56
2023-04-22T13:25:09.123Z,96361.13
2023-04-22T13:27:35.701Z,96360.88
2023-04-22T13:30:02.329Z,96352.41
2023-04-22T13:32:28.839Z,96359.72
2023-04-22T13:34:55.206Z,96347.25
2023-04-22T13:37:21.633Z,96337.47
2023-04-22T13:39:48.116Z,96329.84
2023-04-22T13:42:14.621Z,96332.81
2023-04-22T13:44:41.085Z,96333.00
2023-04-22T13:47:07.678Z,96314.66
2023-04-22T13:49:34.120Z,96345.81
2023-04-22T13:52:00.561Z,96333.94
2023-04-22T13:54:27.103Z,96311.19
2023-04-22T13:56:53.619Z,96321.28
2023-04-22T13:59:20.140Z,96218.06
2023-04-22T14:01:46.689Z,96316.31
2023-04-22T14:04:14.135Z,96279.16
2023-04-22T14:06:40.736Z,96302.81
2023-04-22T14:09:07.485Z,96281.47
2023-04-22T14:11:34.047Z,96273.66
2023-04-22T14:14:00.507Z,96280.38
2023-04-22T14:16:27.098Z,96309.72
2023-04-22T14:18:53.614Z,96304.19
2023-04-22T14:21:19.995Z,96302.25
2023-04-22T14:23:52.318Z,96294.22
2023-04-22T14:29:04.796Z,96278.44
2023-04-22T14:31:31.476Z,96286.13
2023-04-22T14:33:58.029Z,96294.53
2023-04-22T14:36:24.436Z,96269.16
2023-04-22T14:38:50.888Z,96265.13
2023-04-22T14:41:17.628Z,96291.72
2023-04-22T14:43:44.181Z,96292.25
2023-04-22T14:46:11.020Z,96258.50
2023-04-22T14:48:37.591Z,96277.88
2023-04-22T14:51:04.114Z,96261.78
2023-04-22T14:53:30.602Z,96264.25
2023-04-22T14:55:57.142Z,96294.13
2023-04-22T14:58:23.597Z,96284.66
2023-04-22T15:00:50.146Z,96262.28
2023-04-22T15:03:16.961Z,96268.41
2023-04-22T15:05:43.576Z,96276.13
2023-04-22T15:08:10.341Z,96236.31
2023-04-22T15:10:36.847Z,96263.72
2023-04-22T15:13:03.404Z,96262.69
2023-04-22T15:15:29.886Z,96255.94
2023-04-22T15:17:56.446Z,96265.31
2023-04-22T15:20:22.941Z,96263.00
2023-04-22T15:22:49.442Z,96251.56
2023-04-22T15:25:18.232Z,96275.16
2023-04-22T15:27:45.287Z,96244.81
2023-04-22T15:30:12.831Z,96244.94
2023-04-22T15:32:39.377Z,96254.59
2023-04-22T15:35:07.520Z,96268.59
2023-04-22T15:37:33.993Z,96264.69
2023-04-22T15:40:00.556Z,96264.69
2023-04-22T15:42:27.040Z,96288.31
2023-04-22T15:44:53.686Z,96260.22
2023-04-22T15:47:20.367Z,96271.22
2023-04-22T15:49:46.852Z,96278.88
2023-04-22T15:52:13.395Z,96270.66
2023-04-22T15:54:39.896Z,96260.81
2023-04-22T15:57:06.322Z,96265.25
2023-04-22T15:59:33.076Z,96269.22
2023-04-22T16:02:00.080Z,96248.06
2023-04-22T16:04:26.754Z,96251.47
2023-04-22T16:06:57.525Z,96250.38
2023-04-22T16:12:07.301Z,96257.81
2023-04-22T16:14:33.815Z,96259.28
2023-04-22T16:17:00.358Z,96269.44
2023-04-22T16:19:26.867Z,96254.50
2023-04-22T16:21:53.397Z,96269.41
2023-04-22T16:24:20.145Z,96277.66
2023-04-22T16:26:46.614Z,96269.41
2023-04-22T16:29:13.087Z,96277.88
2023-04-22T16:31:39.873Z,96270.41
2023-04-22T16:34:06.315Z,96265.94
2023-04-22T16:36:32.809Z,96254.22
2023-04-22T16:38:59.224Z,96276.97
2023-04-22T16:41:25.651Z,96234.91
2023-04-22T16:43:52.181Z,96251.44
2023-04-22T16:46:18.722Z,96267.44
2023-04-22T16:48:45.117Z,96288.84
2023-04-22T16:51:11.579Z,96272.69
2023-04-22T16:53:38.181Z,96271.31
2023-04-22T16:56:04.704Z,96238.84
2023-04-22T16:58:31.173Z,96273.91
2023-04-22T17:00:57.555Z,96254.25
2023-04-22T17:03:24.206Z,96264.31
2023-04-22T17:05:50.679Z,96254.41
2023-04-22T17:08:17.270Z,96260.16
2023-04-22T17:10:44.339Z,96256.94
2023-04-22T17:13:13.348Z,96263.34
2023-04-22T17:15:39.870Z,96258.38
2023-04-22T17:18:06.504Z,96247.56
2023-04-22T17:20:33.326Z,96266.31
2023-04-22T17:22:59.879Z,96251.81
2023-04-22T17:25:26.816Z,96243.59
2023-04-22T17:27:53.293Z,96249.19
2023-04-22T17:30:19.810Z,96249.13
2023-04-22T17:32:47.354Z,96234.50
2023-04-22T17:35:13.810Z,96236.88
2023-04-22T17:37:40.357Z,96233.09
2023-04-22T17:40:07.634Z,96271.13
2023-04-22T17:42:44.669Z,96271.53
2023-04-22T17:45:12.592Z,96235.72
2023-04-22T17:47:39.172Z,96246.03
2023-04-22T17:50:05.997Z,96261.22
2023-04-22T17:52:33.030Z,96250.31
2023-04-22T17:55:00.036Z,96273.47
2023-04-22T17:57:26.681Z,96264.22
2023-04-22T17:59:53.216Z,96259.22
2023-04-22T18:02:19.737Z,96251.78
2023-04-22T18:04:46.160Z,96270.03
2023-04-22T18:07:12.607Z,96271.84
2023-04-22T18:09:39.362Z,96275.69
2023-04-22T18:12:06.224Z,96261.78
2023-04-22T18:14:32.666Z,96273.31
2023-04-22T18:16:59.229Z,96262.63
2023-04-22T18:19:25.783Z,96281.25
2023-04-22T18:21:59.632Z,96245.28
2023-04-22T18:24:27.240Z,96259.66
2023-04-22T18:26:53.789Z,96251.97
2023-04-22T18:29:20.264Z,96266.88
2023-04-22T18:31:47.080Z,96305.13
2023-04-22T18:34:13.585Z,96293.91
2023-04-22T18:36:40.054Z,96298.00
2023-04-22T18:39:06.502Z,96272.25
2023-04-22T18:41:33.083Z,96280.63
2023-04-22T18:43:59.605Z,96299.19
2023-04-22T18:46:26.304Z,96283.28
2023-04-22T18:48:52.802Z,96288.66
2023-04-22T18:51:19.329Z,96284.22
2023-04-22T18:53:45.746Z,96275.69
2023-04-22T18:56:12.517Z,96264.47
2023-04-22T18:58:38.989Z,96280.97
2023-04-22T19:01:06.140Z,96279.63
2023-04-22T19:03:33.070Z,96294.13
2023-04-22T19:05:59.680Z,96293.31
2023-04-22T19:08:28.172Z,96273.28
2023-04-22T19:10:54.595Z,96288.88
2023-04-22T19:13:29.342Z,96278.06
2023-04-22T19:15:56.794Z,96293.97
2023-04-22T19:18:23.557Z,96290.25
2023-04-22T19:20:50.139Z,96287.34
2023-04-22T19:23:16.646Z,96283.94
2023-04-22T19:25:43.121Z,96297.97
2023-04-22T19:28:09.713Z,96329.78
2023-04-22T19:30:36.174Z,96293.19
2023-04-22T19:33:02.738Z,96282.22
2023-04-22T19:35:29.226Z,96299.56
2023-04-22T19:37:55.624Z,96289.09
2023-04-22T19:40:22.034Z,96283.66
2023-04-22T19:42:48.571Z,96301.94
2023-04-22T19:45:15.084Z,96290.69
2023-04-22T19:47:41.578Z,96295.03
2023-04-22T19:50:09.053Z,96299.44
2023-04-22T19:52:35.933Z,96301.69
2023-04-22T19:55:04.701Z,96320.59
2023-04-22T19:57:31.222Z,96305.38
2023-04-22T19:59:58.077Z,96299.78
2023-04-22T20:02:24.631Z,96304.88
2023-04-22T20:04:51.360Z,96317.91
2023-04-22T20:07:17.903Z,96295.66
2023-04-22T20:09:44.377Z,96315.03
2023-04-22T20:12:10.817Z,96326.66
2023-04-22T20:14:37.413Z,96326.31
2023-04-22T20:17:04.816Z,96305.38
2023-04-22T20:19:32.145Z,96304.88
2023-04-22T20:21:58.700Z,96322.38
2023-04-22T20:24:25.840Z,96308.22
2023-04-22T20:26:52.360Z,96308.22
2023-04-22T20:29:18.874Z,96327.94
2023-04-22T20:31:54.436Z,96317.75
2023-04-22T20:34:21.849Z,96322.06
2023-04-22T20:36:49.991Z,96318.56
2023-04-22T20:39:16.599Z,96312.50
2023-04-22T20:41:43.151Z,96333.31
2023-04-22T20:44:09.803Z,96307.13
2023-04-22T20:46:36.469Z,96337.16
2023-04-22T20:49:02.953Z,96328.88
2023-04-22T20:51:29.425Z,96313.78
2023-04-22T20:53:56.177Z,96306.63
2023-04-22T20:56:22.642Z,96324.09
2023-04-22T20:58:49.242Z,96308.88
2023-04-22T21:01:15.798Z,96317.91
2023-04-22T21:03:42.550Z,96321.06
2023-04-22T21:06:09.294Z,96309.16
2023-04-22T21:08:35.817Z,96348.94
2023-04-22T21:11:02.396Z,96360.84
2023-04-22T21:13:29.046Z,96335.81
2023-04-22T21:15:55.461Z,96367.97
2023-04-22T21:18:22.715Z,96352.72
2023-04-22T21:20:49.589Z,96334.81
2023-04-22T21:23:15.981Z,96368.34
2023-04-22T21:25:42.398Z,96390.09
2023-04-22T21:28:09.070Z,96391.59
2023-04-22T21:30:35.647Z,96371.31
2023-04-22T21:33:02.133Z,96357.88
2023-04-22T21:35:28.725Z,96338.66
2023-04-22T21:37:55.149Z,96388.28
2023-04-22T21:40:21.721Z,96381.25
2023-04-22T21:42:49.363Z,96350.91
2023-04-22T21:45:15.991Z,96345.44
2023-04-22T21:47:42.409Z,96380.09
2023-04-22T21:50:09.107Z,96389.69
2023-04-22T21:52:35.506Z,96374.63
2023-04-22T21:55:02.086Z,96346.97
2023-04-22T21:57:29.062Z,96358.16
2023-04-22T21:59:55.489Z,96343.88
2023-04-22T22:02:22.170Z,96378.19
2023-04-22T22:04:49.172Z,96366.75
2023-04-22T22:07:15.622Z,96332.41
2023-04-22T22:09:43.409Z,96352.19
2023-04-22T22:12:10.521Z,96340.69
2023-04-22T22:14:36.896Z,96370.00
2023-04-22T22:17:03.567Z,96362.06
2023-04-22T22:19:30.332Z,96354.28
2023-04-22T22:21:56.773Z,96360.00
2023-04-22T22:24:23.753Z,96366.09
2023-04-22T22:26:50.245Z,96361.66
2023-04-22T22:29:16.648Z,96393.19
2023-04-22T22:31:43.473Z,96387.19
2023-04-22T22:34:10.151Z,96371.63
2023-04-22T22:36:36.600Z,96375.09
2023-04-22T22:39:03.592Z,96394.50
2023-04-22T22:41:30.568Z,96365.72
2023-04-22T22:43:57.061Z,96361.25
2023-04-22T22:46:23.652Z,96368.28
2023-04-22T22:48:50.121Z,96385.63
2023-04-22T22:51:18.473Z,96386.09
2023-04-22T22:53:45.271Z,96369.69
2023-04-22T22:56:12.014Z,96363.31
2023-04-22T22:58:38.481Z,96376.41
2023-04-22T23:01:05.466Z,96382.84
2023-04-22T23:03:32.319Z,96361.72
2023-04-22T23:05:59.011Z,96362.38
2023-04-22T23:08:25.491Z,96361.75
2023-04-22T23:10:52.048Z,96372.06
2023-04-22T23:13:18.612Z,96369.34
2023-04-22T23:15:45.020Z,96369.31
2023-04-22T23:18:11.490Z,96346.91
2023-04-22T23:20:37.969Z,96353.16
2023-04-22T23:23:04.561Z,96370.47
2023-04-22T23:25:31.099Z,96331.53
2023-04-22T23:27:57.582Z,96369.47
2023-04-22T23:30:24.280Z,96364.91
2023-04-22T23:32:51.100Z,96359.16
2023-04-22T23:35:17.695Z,96353.94
2023-04-22T23:37:44.168Z,96347.09
2023-04-22T23:40:11.182Z,96350.69
2023-04-22T23:42:37.582Z,96351.97
2023-04-22T23:45:04.118Z,96355.66
2023-04-22T23:47:30.611Z,96352.44
2023-04-22T23:49:57.257Z,96359.28
2023-04-22T23:52:23.722Z,96348.34
2023-04-22T23:54:51.294Z,96358.94
2023-04-22T23:57:17.794Z,96360.47
2023-04-22T23:59:44.460Z,96352.78
